createdAt,value
2022-11-21T00:04:54.022Z,19.90
2022-11-21T00:09:58.892Z,19.43
2022-11-21T00:15:05.876Z,18.30
2022-11-21T00:20:08.086Z,19.17
2022-11-21T00:25:12.604Z,18.37
2022-11-21T00:30:14.797Z,19.37
2022-11-21T00:35:16.575Z,19.93
2022-11-21T00:40:18.648Z,18.03
2022-11-21T00:45:24.508Z,20.07
2022-11-21T00:50:26.659Z,19.27
2022-11-21T00:55:31.091Z,18.33
2022-11-21T01:00:32.857Z,19.07
2022-11-21T01:05:34.886Z,22.00
2022-11-21T01:10:38.855Z,22.70
2022-11-21T01:15:45.359Z,20.70
2022-11-21T01:20:55.388Z,21.80
2022-11-21T01:26:10.113Z,19.23
2022-11-21T01:31:23.237Z,22.40
2022-11-21T01:36:32.181Z,22.53
2022-11-21T01:41:39.398Z,21.40
2022-11-21T01:46:41.119Z,20.53
2022-11-21T01:52:04.545Z,21.63
2022-11-21T01:57:13.952Z,27.07
2022-11-21T02:02:20.839Z,22.70
2022-11-21T02:07:30.699Z,24.90
2022-11-21T02:12:42.772Z,28.13
2022-11-21T02:17:46.818Z,25.37
2022-11-21T02:22:54.655Z,23.13
2022-11-21T02:28:01.645Z,23.90
2022-11-21T02:33:06.226Z,26.17
2022-11-21T02:38:16.182Z,28.27
2022-11-21T02:43:26.011Z,29.03
2022-11-21T02:48:32.268Z,24.20
2022-11-21T02:53:37.245Z,23.90
2022-11-21T02:58:41.437Z,28.53
2022-11-21T03:03:45.276Z,24.70
2022-11-21T03:08:46.931Z,26.83
2022-11-21T03:13:48.795Z,27.47
2022-11-21T03:18:52.537Z,22.80
2022-11-21T03:23:56.796Z,23.20
2022-11-21T03:28:58.486Z,25.03
2022-11-21T03:34:00.177Z,24.90
2022-11-21T03:39:04.651Z,26.47
2022-11-21T03:44:08.430Z,26.50
2022-11-21T03:49:10.660Z,26.47
2022-11-21T03:54:12.502Z,26.33
2022-11-21T03:59:18.997Z,26.80
2022-11-21T04:04:22.966Z,23.10
2022-11-21T04:09:25.533Z,27.97
2022-11-21T04:14:27.384Z,24.13
2022-11-21T04:19:33.793Z,28.93
2022-11-21T04:24:35.527Z,26.00
2022-11-21T04:29:38.289Z,26.07
2022-11-21T04:34:42.451Z,23.93
2022-11-21T04:39:44.311Z,24.23
2022-11-21T04:44:48.264Z,27.33
2022-11-21T04:49:53.242Z,26.47
2022-11-21T04:54:57.434Z,27.90
2022-11-21T05:00:01.802Z,25.23
2022-11-21T05:05:04.158Z,28.87
2022-11-21T05:10:08.972Z,26.43
2022-11-21T05:15:13.055Z,27.47
2022-11-21T05:20:19.999Z,27.33
2022-11-21T05:25:21.678Z,26.97
2022-11-21T05:30:32.156Z,28.80
2022-11-21T05:35:43.473Z,28.83
2022-11-21T05:40:45.601Z,28.07
2022-11-21T05:45:51.307Z,26.97
2022-11-21T05:50:55.390Z,28.07
2022-11-21T05:56:11.956Z,27.33
2022-11-21T06:01:15.116Z,28.33
2022-11-21T06:06:23.697Z,28.67
2022-11-21T06:11:28.411Z,25.97
2022-11-21T06:16:32.590Z,25.53
2022-11-21T06:21:37.456Z,27.40
2022-11-21T06:26:39.184Z,26.67
2022-11-21T06:31:40.855Z,26.37
2022-11-21T06:36:45.011Z,24.80
2022-11-21T06:41:51.222Z,27.37
2022-11-21T06:46:53.070Z,26.67
2022-11-21T06:51:54.796Z,26.10
2022-11-21T06:57:01.614Z,27.17
2022-11-21T07:02:03.316Z,27.17
2022-11-21T07:07:07.493Z,31.77
2022-11-21T07:12:30.963Z,29.83
2022-11-21T07:17:34.869Z,30.43
2022-11-21T07:22:39.353Z,26.67
2022-11-21T07:27:42.130Z,27.53
2022-11-21T07:32:46.171Z,27.73
2022-11-21T07:37:50.651Z,26.53
2022-11-21T07:42:54.745Z,26.80
2022-11-21T07:48:01.892Z,27.60
2022-11-21T07:53:08.848Z,29.27
2022-11-21T07:58:15.408Z,32.83
2022-11-21T08:03:22.681Z,28.50
2022-11-21T08:08:26.938Z,30.57
2022-11-21T08:13:30.946Z,29.77
2022-11-21T08:18:35.727Z,30.70
2022-11-21T08:23:40.862Z,31.23
2022-11-21T08:28:43.457Z,30.53
2022-11-21T08:33:45.263Z,30.83
2022-11-21T08:38:46.946Z,30.50
2022-11-21T08:43:51.982Z,30.47
2022-11-21T08:48:54.988Z,30.13
2022-11-21T08:53:56.736Z,28.60
2022-11-21T08:59:00.994Z,26.97
2022-11-21T09:04:04.329Z,30.30
2022-11-21T09:09:13.361Z,27.53
2022-11-21T09:14:33.662Z,28.63
2022-11-21T09:19:35.390Z,29.37
2022-11-21T09:24:44.370Z,26.37
2022-11-21T09:29:54.082Z,29.17
2022-11-21T09:34:57.082Z,28.00
2022-11-21T09:39:58.977Z,29.07
2022-11-21T09:45:02.918Z,28.40
2022-11-21T09:50:25.149Z,26.57
2022-11-21T09:55:39.185Z,26.17
2022-11-21T10:00:44.153Z,25.13
2022-11-21T10:05:56.973Z,25.83
2022-11-21T10:11:19.526Z,25.07
2022-11-21T10:16:42.321Z,23.90
2022-11-21T10:22:04.288Z,22.13
2022-11-21T10:27:15.228Z,22.20
2022-11-21T10:32:26.767Z,21.20
2022-11-21T10:37:33.386Z,20.57
2022-11-21T10:42:38.363Z,19.43
2022-11-21T10:47:42.333Z,18.97
2022-11-21T10:52:56.896Z,18.27
2022-11-21T10:57:58.548Z,17.70
2022-11-21T11:03:17.060Z,18.10
2022-11-21T11:08:18.772Z,17.07
2022-11-21T11:13:51.947Z,15.70
2022-11-21T11:19:10.629Z,14.17
2022-11-21T11:24:12.379Z,13.43
2022-11-21T11:29:15.590Z,12.60
2022-11-21T11:34:17.962Z,11.03
2022-11-21T11:39:37.629Z,11.70
2022-11-21T11:45:30.388Z,9.53
2022-11-21T11:50:41.267Z,8.77
2022-11-21T11:56:21.103Z,7.97
2022-11-21T12:01:31.009Z,7.83
2022-11-21T12:08:19.906Z,8.13
2022-11-21T12:12:42.530Z,11.30
2022-11-21T12:18:09.156Z,11.37
2022-11-21T12:23:11.494Z,11.67
2022-11-21T12:28:26.990Z,12.67
2022-11-21T12:33:31.946Z,13.10
2022-11-21T12:38:46.915Z,14.20
2022-11-21T12:44:08.702Z,13.43
2022-11-21T12:49:51.974Z,12.63
2022-11-21T12:55:14.784Z,13.00
2022-11-21T13:00:22.614Z,12.77
2022-11-21T13:05:29.642Z,11.93
2022-11-21T13:10:31.847Z,12.90
2022-11-21T13:16:06.625Z,12.93
2022-11-21T13:21:41.362Z,12.90
2022-11-21T13:26:43.125Z,13.07
2022-11-21T13:31:48.098Z,12.20
2022-11-21T13:36:54.600Z,12.73
2022-11-21T13:42:25.401Z,12.67
2022-11-21T13:48:01.913Z,12.93
2022-11-21T13:53:25.390Z,12.03
2022-11-21T13:58:42.179Z,12.03
2022-11-21T14:04:04.631Z,10.10
2022-11-21T14:09:48.166Z,10.50
2022-11-21T14:15:11.643Z,8.43
2022-11-21T14:20:18.437Z,7.07
2022-11-21T14:25:24.127Z,6.43
2022-11-21T14:30:30.262Z,6.07
2022-11-21T14:35:32.062Z,5.33
2022-11-21T14:40:33.856Z,6.83
2022-11-21T14:45:38.078Z,7.20
2022-11-21T14:50:42.429Z,7.93
2022-11-21T14:55:50.165Z,6.53
2022-11-21T15:01:07.025Z,7.60
2022-11-21T15:06:11.358Z,7.20
2022-11-21T15:11:16.117Z,9.80
2022-11-21T15:16:20.152Z,11.30
2022-11-21T15:21:27.162Z,8.97
2022-11-21T15:26:33.893Z,8.30
2022-11-21T15:31:35.600Z,7.43
2022-11-21T15:36:37.402Z,7.70
2022-11-21T15:41:39.323Z,10.27
2022-11-21T15:46:48.377Z,16.93
2022-11-21T15:52:10.499Z,9.03
2022-11-21T15:57:17.046Z,16.97
2022-11-21T16:02:21.428Z,9.53
2022-11-21T16:07:27.914Z,11.33
2022-11-21T16:12:31.894Z,16.13
2022-11-21T16:17:33.618Z,10.63
2022-11-21T16:22:35.328Z,11.47
2022-11-21T16:27:39.321Z,10.70
2022-11-21T16:32:42.643Z,12.27
2022-11-21T16:37:47.253Z,14.47
2022-11-21T16:42:53.498Z,11.03
2022-11-21T16:47:57.502Z,11.23
2022-11-21T16:53:05.387Z,11.50
2022-11-21T16:58:07.131Z,12.37
2022-11-21T17:03:11.495Z,12.67
2022-11-21T17:08:18.057Z,13.93
2022-11-21T17:13:22.045Z,14.30
2022-11-21T17:18:24.440Z,14.67
2022-11-21T17:23:26.270Z,15.13
2022-11-21T17:28:28.112Z,15.23
2022-11-21T17:33:30.076Z,14.83
2022-11-21T17:38:35.958Z,15.80
2022-11-21T17:43:47.178Z,16.57
2022-11-21T17:48:54.966Z,14.53
2022-11-21T17:54:01.131Z,14.97
2022-11-21T17:59:03.479Z,16.40
2022-11-21T18:04:13.585Z,15.67
2022-11-21T18:09:17.785Z,16.10
2022-11-21T18:14:19.526Z,16.97
2022-11-21T18:19:22.119Z,17.13
2022-11-21T18:24:24.402Z,16.90
2022-11-21T18:29:40.364Z,19.23
2022-11-21T18:34:42.252Z,18.07
2022-11-21T18:39:44.003Z,18.87
2022-11-21T18:44:48.424Z,17.33
2022-11-21T18:49:50.298Z,17.80
2022-11-21T18:54:54.905Z,17.93
2022-11-21T18:59:56.574Z,17.83
2022-11-21T19:05:02.948Z,18.10
2022-11-21T19:10:35.585Z,19.10
2022-11-21T19:15:32.440Z,18.83
2022-11-21T19:20:39.510Z,19.63
2022-11-21T19:25:44.822Z,19.27
2022-11-21T19:30:48.938Z,20.17
2022-11-21T19:35:51.972Z,20.63
2022-11-21T19:41:19.804Z,20.47
2022-11-21T19:46:35.665Z,19.27
2022-11-21T19:51:40.159Z,19.53
2022-11-21T19:56:45.357Z,19.73
2022-11-21T20:01:52.854Z,20.90
2022-11-21T20:06:57.422Z,20.63
2022-11-21T20:12:02.266Z,21.77
2022-11-21T20:17:06.063Z,22.50
2022-11-21T20:22:08.025Z,21.43
2022-11-21T20:27:12.236Z,21.27
2022-11-21T20:32:15.921Z,21.03
2022-11-21T20:37:27.624Z,22.83
2022-11-21T20:42:29.432Z,21.83
2022-11-21T20:47:32.935Z,22.60
2022-11-21T20:58:01.741Z,21.67
2022-11-21T21:03:09.642Z,20.87
2022-11-21T21:08:13.675Z,22.43
2022-11-21T21:13:18.420Z,23.40
2022-11-21T21:18:22.455Z,22.60
2022-11-21T21:23:24.847Z,23.07
2022-11-21T21:28:31.439Z,23.53
2022-11-21T21:33:34.381Z,23.73
2022-11-21T21:38:37.842Z,23.63
2022-11-21T21:43:40.586Z,23.73
2022-11-21T21:48:43.483Z,24.73
2022-11-21T21:53:46.482Z,23.70
2022-11-21T21:58:49.229Z,25.00
2022-11-21T22:03:58.368Z,24.57
2022-11-21T22:09:06.117Z,25.43
2022-11-21T22:14:11.972Z,26.97
2022-11-21T22:19:16.040Z,24.83
2022-11-21T22:24:27.733Z,24.40
2022-11-21T22:29:33.683Z,24.70
2022-11-21T22:34:40.131Z,24.97
2022-11-21T22:39:45.312Z,26.33
2022-11-21T22:44:49.281Z,25.07
2022-11-21T22:49:55.579Z,25.50
2022-11-21T22:55:02.059Z,24.13
2022-11-21T23:00:09.328Z,25.63
2022-11-21T23:05:11.011Z,24.13
2022-11-21T23:10:16.190Z,24.90
2022-11-21T23:15:23.611Z,23.33
2022-11-21T23:20:25.776Z,24.67
2022-11-21T23:25:27.438Z,24.23
2022-11-21T23:30:32.642Z,24.33
2022-11-21T23:35:40.192Z,24.73
2022-11-21T23:40:44.408Z,24.30
2022-11-21T23:45:50.813Z,24.83
2022-11-21T23:50:55.077Z,26.77
2022-11-21T23:55:59.139Z,26.47
